Time;durP1;ratioP1;P1;durP2;ratioP2;P2;SDS_P1;SDS_P2;PMS_P1;PMS_P2;Temp;Humidity;BMP_temperature;BMP_pressure;BME280_temperature;BME280_humidity;BME280_pressure;Samples;Min_cycle;Max_cycle;Signal;HPM_P1;HPM_P2
2022/04/05 00:01:21;;;;;;;4.53;2.73;;;9.40;43.80;;;;;;5013462;28;20173;-34
2022/04/05 00:03:47;;;;;;;4.60;2.50;;;9.40;43.50;;;;;;5013604;28;20270;-33
2022/04/05 00:06:12;;;;;;;4.20;2.70;;;9.50;43.70;;;;;;5013518;28;20273;-34
2022/04/05 00:08:38;;;;;;;3.70;2.50;;;9.40;44.20;;;;;;5013842;28;20178;-34
2022/04/05 00:11:04;;;;;;;2.57;1.90;;;9.20;44.70;;;;;;5013352;28;20189;-33
2022/04/05 00:13:30;;;;;;;2.33;2.07;;;9.20;45.20;;;;;;5013569;28;20210;-34
2022/04/05 00:15:55;;;;;;;4.20;2.07;;;9.20;45.40;;;;;;5013543;28;20178;-34
2022/04/05 00:18:21;;;;;;;3.50;2.37;;;9.10;45.80;;;;;;5013705;28;20177;-34
2022/04/05 00:20:47;;;;;;;3.00;1.97;;;9.10;45.60;;;;;;5012899;28;20202;-34
2022/04/05 00:23:13;;;;;;;3.70;2.17;;;9.10;46.30;;;;;;5013504;28;20494;-34
2022/04/05 00:25:56;;;;;;;3.47;2.50;;;9.00;46.70;;;;;;5013217;28;20177;-34
2022/04/05 00:28:21;;;;;;;3.70;3.22;;;8.80;47.40;;;;;;5013401;28;20405;-34
2022/04/05 00:30:47;;;;;;;3.83;2.77;;;8.80;47.60;;;;;;5012797;28;20199;-34
2022/04/05 00:33:13;;;;;;;2.50;2.10;;;8.70;48.10;;;;;;5013020;28;20202;-34
2022/04/05 00:35:39;;;;;;;3.00;2.23;;;8.80;47.90;;;;;;5013072;28;20202;-34
2022/04/05 00:38:04;;;;;;;4.60;2.83;;;8.70;48.50;;;;;;5013097;28;20405;-34
2022/04/05 00:40:30;;;;;;;5.80;3.23;;;8.60;48.80;;;;;;5012920;28;20229;-34
2022/04/05 00:42:57;;;;;;;5.53;3.20;;;8.50;49.30;;;;;;5013253;28;20190;-34
2022/04/05 00:45:22;;;;;;;2.97;2.03;;;8.60;48.90;;;;;;5013208;28;20816;-34
2022/04/05 00:47:50;;;;;;;3.87;2.63;;;8.60;49.30;;;;;;5012828;28;20178;-34
2022/04/05 00:50:20;;;;;;;5.78;3.85;;;8.60;49.20;;;;;;5012922;28;20203;-34
2022/04/05 00:52:46;;;;;;;3.40;2.10;;;8.60;49.20;;;;;;5011145;28;20237;-33
2022/04/05 00:55:12;;;;;;;4.20;2.57;;;8.60;49.00;;;;;;5012663;28;20212;-34
2022/04/05 00:57:39;;;;;;;6.73;3.47;;;8.60;49.30;;;;;;5012734;28;20402;-34
2022/04/05 01:00:08;;;;;;;3.67;2.50;;;8.60;49.20;;;;;;5012766;28;20426;-34
2022/04/05 01:02:38;;;;;;;3.75;2.03;;;8.50;49.00;;;;;;5012417;28;20432;-33
2022/04/05 01:05:06;;;;;;;3.20;2.42;;;8.50;49.20;;;;;;5012959;28;20243;-34
2022/04/05 01:07:33;;;;;;;3.47;2.78;;;8.70;48.60;;;;;;5012241;28;20185;-33
2022/04/05 01:10:00;;;;;;;6.97;3.67;;;8.80;48.20;;;;;;5012354;28;20658;-34
2022/04/05 01:12:26;;;;;;;6.00;3.20;;;8.80;48.10;;;;;;5012813;28;20184;-34
2022/04/05 01:14:52;;;;;;;4.20;2.80;;;8.70;48.40;;;;;;5012679;28;20297;-34
2022/04/05 01:17:18;;;;;;;3.70;3.28;;;8.70;48.90;;;;;;5012670;28;20421;-34
2022/04/05 01:19:47;;;;;;;2.88;2.45;;;8.60;49.00;;;;;;5010635;28;20307;-34
2022/04/05 01:22:13;;;;;;;3.45;2.35;;;8.60;49.10;;;;;;5012206;28;20182;-34
2022/04/05 01:24:39;;;;;;;6.32;3.65;;;8.50;49.20;;;;;;5012368;28;20229;-33
2022/04/05 01:27:06;;;;;;;4.63;3.27;;;8.50;49.50;;;;;;5012317;28;20206;-33
2022/04/05 01:29:32;;;;;;;5.25;2.72;;;8.30;50.30;;;;;;5012114;28;20435;-33
2022/04/05 01:32:06;;;;;;;3.30;2.67;;;8.30;50.10;;;;;;5012030;28;20262;-33
2022/04/05 01:34:37;;;;;;;3.80;2.30;;;8.30;50.80;;;;;;5012568;28;20169;-33
2022/04/05 01:37:09;;;;;;;7.97;4.32;;;8.30;50.70;;;;;;5011707;28;20194;-33
2022/04/05 01:39:38;;;;;;;5.40;3.00;;;8.30;50.80;;;;;;5012183;28;20675;-33
2022/04/05 01:42:12;;;;;;;4.15;2.40;;;8.30;50.70;;;;;;5011925;28;20211;-33
2022/04/05 01:44:39;;;;;;;5.22;3.50;;;8.40;50.40;;;;;;5012284;28;20238;-33
2022/04/05 01:47:14;;;;;;;4.25;2.90;;;8.30;50.40;;;;;;5012176;28;20179;-33
2022/04/05 01:49:41;;;;;;;4.18;2.58;;;8.30;50.40;;;;;;5010610;28;20207;-33
2022/04/05 01:52:09;;;;;;;3.42;2.05;;;8.40;51.00;;;;;;5011692;28;20230;-33
2022/04/05 01:54:35;;;;;;;3.83;2.75;;;8.40;50.20;;;;;;5012215;28;20184;-33
2022/04/05 01:57:00;;;;;;;4.83;2.50;;;8.30;50.30;;;;;;5012231;28;20186;-33
2022/04/05 01:59:28;;;;;;;5.53;2.57;;;8.50;50.70;;;;;;5012031;28;20501;-33
2022/04/05 02:01:55;;;;;;;7.75;3.70;;;8.30;49.90;;;;;;5011864;28;20406;-33
2022/04/05 02:04:21;;;;;;;4.18;2.47;;;8.30;50.30;;;;;;5011974;28;20196;-33
2022/04/05 02:06:48;;;;;;;4.55;2.28;;;8.20;50.70;;;;;;5012306;28;20589;-33
2022/04/05 02:09:15;;;;;;;3.28;2.50;;;8.20;50.60;;;;;;4994439;28;20617;-33
2022/04/05 02:11:46;;;;;;;3.85;2.70;;;8.30;50.60;;;;;;5011668;28;20200;-33
2022/04/05 02:14:13;;;;;;;4.22;2.15;;;8.30;50.70;;;;;;5011806;28;20696;-33
2022/04/05 02:16:39;;;;;;;3.50;2.25;;;8.40;50.50;;;;;;5011935;28;20173;-33
2022/04/05 02:19:05;;;;;;;3.83;2.13;;;8.40;50.40;;;;;;5011610;28;20250;-33
2022/04/05 02:21:31;;;;;;;4.37;3.23;;;8.50;50.20;;;;;;5011557;28;20488;-33
2022/04/05 02:23:57;;;;;;;3.20;2.23;;;8.40;50.00;;;;;;5012065;28;20184;-33
2022/04/05 02:26:23;;;;;;;4.43;2.83;;;8.30;50.60;;;;;;5011810;28;20583;-33
2022/04/05 02:28:48;;;;;;;2.93;1.93;;;8.30;50.90;;;;;;5011964;28;20178;-33
2022/04/05 02:31:15;;;;;;;4.47;2.57;;;8.40;51.00;;;;;;5011744;28;20411;-33
2022/04/05 02:33:41;;;;;;;2.97;1.50;;;8.50;49.90;;;;;;5011726;28;20826;-33
2022/04/05 02:36:07;;;;;;;3.60;2.22;;;8.60;49.60;;;;;;5011912;28;20251;-33
2022/04/05 02:38:33;;;;;;;3.08;1.73;;;8.50;49.60;;;;;;5011234;28;20652;-33
2022/04/05 02:40:59;;;;;;;2.67;1.70;;;8.40;50.20;;;;;;5011386;28;20314;-33
2022/04/05 02:43:25;;;;;;;3.40;1.83;;;8.40;50.10;;;;;;5011598;28;20208;-33
2022/04/05 02:45:55;;;;;;;2.30;1.52;;;8.30;50.50;;;;;;5031520;22;20305;-36
2022/04/05 02:48:22;;;;;;;3.70;2.28;;;8.40;50.30;;;;;;5000801;28;20171;-35
2022/04/05 02:50:48;;;;;;;3.65;2.25;;;8.30;50.50;;;;;;5011546;28;20238;-35
2022/04/05 02:53:14;;;;;;;2.30;1.42;;;8.30;50.40;;;;;;5011792;28;20197;-35
2022/04/05 02:55:40;;;;;;;2.80;1.97;;;8.40;50.40;;;;;;5007755;28;20192;-35
2022/04/05 02:58:05;;;;;;;4.50;2.77;;;8.40;50.30;;;;;;4992219;28;20175;-35
2022/04/05 03:00:32;;;;;;;4.10;1.90;;;8.30;50.50;;;;;;4991929;28;20405;-35
2022/04/05 03:02:57;;;;;;;3.13;1.98;;;8.10;51.20;;;;;;4992359;28;20180;-35
2022/04/05 03:05:24;;;;;;;3.00;2.23;;;8.10;51.10;;;;;;4991989;28;20177;-35
2022/04/05 03:07:50;;;;;;;2.75;1.48;;;8.10;51.20;;;;;;4992100;28;20181;-35
2022/04/05 03:10:15;;;;;;;4.47;2.00;;;8.30;50.60;;;;;;4991976;28;20270;-35
2022/04/05 03:12:41;;;;;;;2.23;1.63;;;8.50;50.00;;;;;;4991648;28;20199;-35
2022/04/05 03:15:09;;;;;;;2.50;1.65;;;8.60;50.00;;;;;;4992193;28;20176;-35
2022/04/05 03:17:35;;;;;;;3.20;1.98;;;8.60;50.00;;;;;;4992088;28;20204;-35
2022/04/05 03:20:03;;;;;;;3.22;2.10;;;8.60;49.80;;;;;;4991964;28;20184;-35
2022/04/05 03:22:29;;;;;;;2.97;2.30;;;8.50;50.00;;;;;;4991624;28;20176;-35
2022/04/05 03:24:55;;;;;;;2.85;2.25;;;8.50;50.30;;;;;;4991627;28;20543;-35
2022/04/05 03:27:21;;;;;;;2.00;1.40;;;8.60;49.80;;;;;;4991569;28;20280;-35
2022/04/05 03:29:46;;;;;;;2.43;1.50;;;8.60;49.90;;;;;;4991780;28;20423;-35
2022/04/05 03:32:12;;;;;;;6.60;2.20;;;8.50;49.80;;;;;;4991631;28;20194;-35
2022/04/05 03:34:39;;;;;;;2.27;1.70;;;8.60;50.00;;;;;;4991582;28;20516;-35
2022/04/05 03:37:05;;;;;;;3.80;2.33;;;8.50;50.10;;;;;;4974685;28;20211;-35
2022/04/05 03:39:31;;;;;;;2.05;1.42;;;8.60;50.50;;;;;;5042614;28;20517;-35
2022/04/05 03:41:57;;;;;;;2.33;1.60;;;8.60;49.80;;;;;;5073562;28;20218;-35
2022/04/05 03:44:24;;;;;;;2.00;1.10;;;8.60;49.40;;;;;;5074041;28;20186;-35
2022/04/05 03:46:50;;;;;;;3.10;1.77;;;8.70;49.50;;;;;;5073016;28;20212;-36
2022/04/05 03:49:16;;;;;;;2.40;1.30;;;8.70;49.50;;;;;;5021351;28;20184;-35
2022/04/05 03:51:42;;;;;;;2.97;1.90;;;8.80;49.10;;;;;;5016090;28;20418;-35
2022/04/05 03:54:07;;;;;;;3.17;1.77;;;8.80;48.60;;;;;;4991365;28;20247;-35
2022/04/05 03:56:33;;;;;;;3.70;1.30;;;8.70;49.30;;;;;;4991188;28;20733;-35
2022/04/05 03:58:59;;;;;;;4.10;2.90;;;8.60;49.60;;;;;;4990803;28;20179;-35
2022/04/05 04:01:24;;;;;;;2.23;1.57;;;8.60;49.30;;;;;;4990999;28;20201;-35
2022/04/05 04:03:50;;;;;;;1.80;1.50;;;8.70;49.30;;;;;;4991262;28;20180;-36
2022/04/05 04:06:15;;;;;;;3.57;1.70;;;8.70;49.40;;;;;;4991514;28;20207;-35
2022/04/05 04:08:41;;;;;;;2.63;1.50;;;8.60;49.80;;;;;;4990987;28;20172;-35
2022/04/05 04:11:07;;;;;;;2.80;1.83;;;8.50;50.20;;;;;;4991047;28;20182;-35
2022/04/05 04:13:32;;;;;;;4.07;2.07;;;8.40;50.90;;;;;;4991143;28;20195;-35
2022/04/05 04:15:58;;;;;;;6.27;2.60;;;8.40;50.60;;;;;;4990949;28;20192;-35
2022/04/05 04:18:24;;;;;;;3.60;2.00;;;8.40;50.60;;;;;;4990925;28;20165;-35
2022/04/05 04:20:50;;;;;;;2.63;2.30;;;8.50;50.70;;;;;;4990750;28;20173;-35
2022/04/05 04:23:16;;;;;;;2.77;2.23;;;8.40;50.80;;;;;;4991007;28;20182;-35
2022/04/05 04:25:41;;;;;;;2.55;1.63;;;8.40;51.10;;;;;;4990851;28;20312;-35
2022/04/05 04:28:08;;;;;;;2.50;1.43;;;8.50;50.90;;;;;;4991135;28;20234;-35
2022/04/05 04:30:35;;;;;;;2.53;1.13;;;8.50;51.00;;;;;;4990784;28;20189;-35
2022/04/05 04:33:02;;;;;;;2.38;1.77;;;8.50;50.80;;;;;;4990905;28;20251;-35
2022/04/05 04:35:28;;;;;;;2.97;2.25;;;8.50;50.90;;;;;;4990643;28;20175;-35
2022/04/05 04:37:54;;;;;;;2.65;2.15;;;8.50;50.90;;;;;;4990578;28;20181;-35
2022/04/05 04:40:21;;;;;;;1.92;1.27;;;8.50;51.00;;;;;;4990489;28;20172;-35
2022/04/05 04:42:47;;;;;;;3.22;1.48;;;8.50;51.10;;;;;;4990798;28;20237;-35
2022/04/05 04:45:13;;;;;;;2.27;1.63;;;8.60;50.70;;;;;;4990444;28;20175;-35
2022/04/05 04:47:39;;;;;;;2.33;1.43;;;8.60;50.10;;;;;;4990404;28;20503;-35
2022/04/05 04:50:06;;;;;;;3.38;2.00;;;8.60;51.10;;;;;;4990678;28;20210;-35
2022/04/05 04:52:31;;;;;;;4.60;2.85;;;8.70;50.60;;;;;;4990049;28;20211;-35
2022/04/05 04:54:57;;;;;;;2.13;1.27;;;8.60;50.80;;;;;;4990402;28;20562;-35
2022/04/05 04:57:25;;;;;;;1.50;1.00;;;8.70;50.80;;;;;;4990342;28;20210;-35
2022/04/05 04:59:51;;;;;;;2.53;1.50;;;8.70;50.80;;;;;;4990436;28;20406;-35
2022/04/05 05:02:17;;;;;;;2.47;1.30;;;8.70;50.70;;;;;;4990300;28;20179;-35
2022/04/05 05:04:42;;;;;;;4.80;2.10;;;8.70;51.00;;;;;;4990207;28;20196;-35
2022/04/05 05:07:08;;;;;;;2.70;2.03;;;8.60;51.30;;;;;;4990433;28;20444;-35
2022/04/05 05:09:34;;;;;;;2.10;1.37;;;8.70;51.00;;;;;;4990582;28;20191;-35
2022/04/05 05:12:00;;;;;;;1.73;1.13;;;8.70;51.30;;;;;;4989053;28;20632;-36
2022/04/05 05:14:27;;;;;;;2.60;1.40;;;8.70;51.30;;;;;;4990073;28;20598;-36
2022/04/05 05:16:54;;;;;;;2.13;1.27;;;8.60;51.70;;;;;;4989748;28;20665;-36
2022/04/05 05:19:20;;;;;;;3.22;2.15;;;8.60;52.00;;;;;;4978280;28;20241;-36
2022/04/05 05:21:46;;;;;;;2.65;1.77;;;8.60;52.20;;;;;;5009997;28;20167;-36
2022/04/05 05:24:12;;;;;;;2.03;1.00;;;8.70;51.90;;;;;;5072178;28;20179;-36
2022/04/05 05:26:38;;;;;;;2.00;1.50;;;8.90;51.60;;;;;;5071954;28;20421;-36
2022/04/05 05:29:04;;;;;;;1.93;1.67;;;9.00;51.30;;;;;;5071945;28;20168;-36
2022/04/05 05:31:29;;;;;;;3.15;1.80;;;9.00;51.20;;;;;;5072035;28;20575;-33
2022/04/05 05:33:55;;;;;;;3.30;1.40;;;9.00;51.30;;;;;;5071721;28;20230;-33
2022/04/05 05:36:21;;;;;;;1.63;1.20;;;8.90;52.10;;;;;;5071687;28;20188;-33
2022/04/05 05:38:46;;;;;;;1.50;1.10;;;8.90;52.20;;;;;;5071823;28;20575;-33
2022/04/05 05:41:12;;;;;;;2.23;1.40;;;8.90;52.30;;;;;;5071742;28;20749;-33
2022/04/05 05:43:38;;;;;;;1.13;0.50;;;8.90;52.30;;;;;;5071823;28;20522;-33
2022/04/05 05:46:06;;;;;;;2.25;1.23;;;9.00;51.70;;;;;;5071664;28;20271;-33
2022/04/05 05:48:33;;;;;;;1.85;1.20;;;9.10;51.60;;;;;;5071718;28;20200;-33
2022/04/05 05:50:59;;;;;;;1.70;1.48;;;9.20;51.50;;;;;;5071451;28;20278;-33
2022/04/05 05:53:25;;;;;;;2.73;0.83;;;9.30;51.90;;;;;;5071533;28;20192;-33
2022/04/05 05:55:51;;;;;;;2.55;1.60;;;9.30;51.00;;;;;;5071516;28;20445;-33
2022/04/05 05:58:16;;;;;;;3.35;0.90;;;9.40;51.10;;;;;;5071953;28;20636;-33
2022/04/05 06:00:42;;;;;;;4.57;1.60;;;9.50;51.70;;;;;;5071402;28;20631;-33
2022/04/05 06:03:10;;;;;;;1.10;0.47;;;9.50;50.60;;;;;;5071797;28;20576;-33
2022/04/05 06:05:36;;;;;;;1.25;0.80;;;9.40;51.00;;;;;;5071462;28;20224;-33
2022/04/05 06:08:02;;;;;;;1.60;0.80;;;9.40;51.20;;;;;;5071834;28;20256;-33
2022/04/05 06:10:28;;;;;;;1.58;0.95;;;9.40;51.60;;;;;;5071419;28;20172;-33
2022/04/05 06:12:57;;;;;;;1.97;1.40;;;9.30;51.40;;;;;;5071513;28;20613;-33
2022/04/05 06:15:25;;;;;;;2.47;1.05;;;9.40;51.10;;;;;;5071490;28;20409;-33
2022/04/05 06:17:51;;;;;;;1.20;0.52;;;9.60;50.80;;;;;;5071323;28;20196;-33
2022/04/05 06:20:19;;;;;;;2.35;0.90;;;9.60;50.90;;;;;;5071559;28;20159;-33
2022/04/05 06:22:50;;;;;;;2.85;1.27;;;9.50;50.90;;;;;;5030174;28;20642;-33
2022/04/05 06:25:18;;;;;;;2.85;1.05;;;9.40;51.10;;;;;;4998252;28;20199;-33
2022/04/05 06:27:44;;;;;;;2.47;1.10;;;9.30;51.70;;;;;;4992699;28;20186;-36
2022/04/05 06:30:12;;;;;;;2.17;1.00;;;9.30;51.90;;;;;;4992612;28;20168;-36
2022/04/05 06:32:38;;;;;;;1.85;1.30;;;9.30;51.50;;;;;;4992216;28;20202;-36
2022/04/05 06:35:06;;;;;;;1.40;0.98;;;9.30;51.40;;;;;;4992501;28;20182;-36
2022/04/05 06:37:32;;;;;;;1.60;1.00;;;9.30;51.20;;;;;;4993071;28;20572;-36
2022/04/05 06:39:57;;;;;;;2.50;1.20;;;9.30;51.40;;;;;;4992501;28;20250;-36
2022/04/05 06:42:25;;;;;;;1.40;0.93;;;9.40;50.90;;;;;;4992183;28;20418;-33
2022/04/05 06:44:53;;;;;;;1.77;1.13;;;9.50;51.10;;;;;;4992369;28;20163;-33
2022/04/05 06:47:19;;;;;;;2.05;1.42;;;9.50;51.20;;;;;;4992023;28;20704;-33
2022/04/05 06:49:44;;;;;;;1.88;1.20;;;9.50;51.50;;;;;;4992219;28;20176;-33
2022/04/05 06:52:10;;;;;;;1.20;0.57;;;9.70;50.90;;;;;;4991910;28;20194;-33
2022/04/05 06:54:36;;;;;;;2.40;1.80;;;9.70;50.80;;;;;;4992058;28;20299;-33
2022/04/05 06:57:02;;;;;;;4.13;1.10;;;9.80;50.20;;;;;;4992103;28;20248;-33
2022/04/05 06:59:27;;;;;;;2.37;1.30;;;9.90;50.40;;;;;;4992075;28;20202;-33
2022/04/05 07:01:53;;;;;;;1.50;1.00;;;10.10;50.10;;;;;;4992007;28;20180;-33
2022/04/05 07:04:19;;;;;;;1.30;0.90;;;10.00;50.30;;;;;;4992228;28;20252;-33
2022/04/05 07:06:44;;;;;;;1.77;1.20;;;10.10;50.00;;;;;;4991984;28;20782;-33
2022/04/05 07:09:10;;;;;;;1.90;1.00;;;10.10;50.20;;;;;;4991956;28;20675;-33
2022/04/05 07:11:37;;;;;;;2.07;1.20;;;10.00;50.50;;;;;;4991696;28;20693;-33
2022/04/05 07:14:03;;;;;;;2.63;1.17;;;10.10;50.40;;;;;;4991731;28;20537;-33
2022/04/05 07:16:28;;;;;;;2.30;1.07;;;10.10;50.20;;;;;;4991848;28;20420;-36
2022/04/05 07:18:54;;;;;;;2.53;1.37;;;10.10;50.40;;;;;;4988970;28;20432;-36
2022/04/05 07:21:20;;;;;;;1.57;0.93;;;10.10;50.40;;;;;;5024958;28;20253;-36
2022/04/05 07:23:50;;;;;;;2.00;1.40;;;10.10;50.30;;;;;;4991807;28;20541;-36
2022/04/05 07:26:15;;;;;;;1.50;0.80;;;10.10;50.40;;;;;;4991651;28;20295;-36
2022/04/05 07:28:41;;;;;;;2.60;1.10;;;10.10;50.80;;;;;;4991483;28;20212;-33
2022/04/05 07:31:07;;;;;;;1.73;1.00;;;10.10;50.50;;;;;;4991465;28;20417;-33
2022/04/05 07:33:33;;;;;;;3.13;1.63;;;10.20;50.60;;;;;;4990866;28;20450;-33
2022/04/05 07:35:59;;;;;;;2.80;1.37;;;10.30;50.10;;;;;;4991656;28;20429;-33
2022/04/05 07:38:25;;;;;;;2.77;1.40;;;10.30;50.40;;;;;;4991729;28;20199;-33
2022/04/05 07:40:52;;;;;;;1.70;1.20;;;10.50;50.00;;;;;;4991371;28;20436;-33
2022/04/05 07:43:26;;;;;;;1.75;0.85;;;10.70;49.60;;;;;;4990604;28;20260;-33
2022/04/05 07:45:52;;;;;;;1.65;1.00;;;10.60;49.10;;;;;;5017323;28;20212;-36
2022/04/05 07:48:23;;;;;;;3.83;1.90;;;10.60;49.30;;;;;;4995586;28;20179;-34
2022/04/05 07:50:49;;;;;;;1.65;1.15;;;10.70;49.40;;;;;;4991154;28;20231;-34
2022/04/05 07:53:16;;;;;;;2.53;1.23;;;10.90;49.10;;;;;;4991207;28;20203;-34
2022/04/05 07:55:42;;;;;;;2.25;1.45;;;10.90;48.90;;;;;;4991195;28;20289;-34
2022/04/05 07:58:08;;;;;;;1.30;0.68;;;11.00;48.90;;;;;;4991254;28;20539;-34
2022/04/05 08:00:34;;;;;;;2.15;1.13;;;11.00;48.80;;;;;;4990949;28;20218;-34
2022/04/05 08:03:00;;;;;;;1.73;1.17;;;11.10;48.50;;;;;;4991298;28;20210;-34
2022/04/05 08:05:27;;;;;;;2.40;1.47;;;11.10;48.60;;;;;;4991317;28;20446;-34
2022/04/05 08:07:54;;;;;;;1.60;0.90;;;11.30;48.10;;;;;;4991395;28;20239;-34
2022/04/05 08:10:20;;;;;;;1.90;1.15;;;11.20;48.10;;;;;;4990781;28;20204;-34
2022/04/05 08:12:48;;;;;;;2.40;1.40;;;11.20;48.10;;;;;;4990846;28;20199;-34
2022/04/05 08:15:21;;;;;;;1.80;1.10;;;11.20;48.30;;;;;;4991035;28;20258;-34
2022/04/05 08:17:48;;;;;;;1.90;1.38;;;11.20;48.30;;;;;;4990990;28;20533;-34
2022/04/05 08:20:15;;;;;;;2.17;1.55;;;11.10;48.60;;;;;;4990859;28;20183;-34
2022/04/05 08:22:41;;;;;;;2.83;1.67;;;11.20;48.00;;;;;;4990712;28;20559;-34
2022/04/05 08:25:08;;;;;;;2.40;1.23;;;11.20;47.60;;;;;;4990768;28;20175;-34
2022/04/05 08:27:34;;;;;;;1.98;1.65;;;11.20;47.90;;;;;;4990798;28;20548;-34
2022/04/05 08:30:00;;;;;;;2.23;1.50;;;11.20;47.90;;;;;;4990816;28;20175;-33
2022/04/05 08:32:27;;;;;;;2.20;1.15;;;11.10;48.60;;;;;;4984483;28;20423;-34
2022/04/05 08:34:53;;;;;;;1.85;1.20;;;11.10;48.40;;;;;;5024388;28;20177;-34
2022/04/05 08:37:18;;;;;;;2.53;1.73;;;11.20;48.30;;;;;;4990498;28;20282;-34
2022/04/05 08:39:44;;;;;;;1.63;1.13;;;11.30;47.40;;;;;;4990677;28;20184;-34
2022/04/05 08:42:11;;;;;;;1.80;1.13;;;11.30;47.60;;;;;;4990555;28;20272;-34
2022/04/05 08:44:38;;;;;;;1.45;0.82;;;11.30;47.50;;;;;;4989235;28;20265;-34
2022/04/05 08:47:04;;;;;;;1.70;1.10;;;11.30;47.80;;;;;;4990360;28;20293;-34
2022/04/05 08:49:31;;;;;;;2.55;1.48;;;11.40;47.60;;;;;;4990435;28;20183;-34
2022/04/05 08:51:57;;;;;;;3.33;1.65;;;11.40;47.70;;;;;;4990176;28;20198;-34
2022/04/05 08:54:23;;;;;;;2.57;1.30;;;11.40;47.50;;;;;;4990356;28;20231;-34
2022/04/05 08:56:50;;;;;;;1.95;1.35;;;11.50;46.90;;;;;;4990242;28;20611;-34
2022/04/05 08:59:16;;;;;;;1.58;0.85;;;11.30;47.30;;;;;;4990339;28;20268;-34
2022/04/05 09:01:42;;;;;;;2.40;1.63;;;11.40;47.00;;;;;;4990368;28;20220;-34
2022/04/05 09:04:10;;;;;;;2.25;1.30;;;11.50;47.20;;;;;;4990283;28;20180;-34
2022/04/05 09:06:36;;;;;;;3.70;1.40;;;11.50;46.90;;;;;;4990470;28;20230;-34
2022/04/05 09:09:09;;;;;;;3.35;1.80;;;11.70;46.60;;;;;;4989820;28;20183;-34
2022/04/05 09:11:36;;;;;;;2.30;1.20;;;11.80;46.60;;;;;;4989980;28;20268;-34
2022/04/05 09:14:04;;;;;;;2.42;1.90;;;12.00;46.90;;;;;;4990115;28;20758;-34
2022/04/05 09:16:34;;;;;;;2.92;1.83;;;11.80;46.60;;;;;;4990684;28;20203;-34
2022/04/05 09:19:08;;;;;;;2.15;1.45;;;12.00;46.50;;;;;;4990015;28;20194;-34
2022/04/05 09:21:53;;;;;;;1.60;1.17;;;12.10;46.00;;;;;;4990073;28;20187;-34
2022/04/05 09:24:20;;;;;;;2.35;1.60;;;12.00;46.10;;;;;;4990430;28;20210;-34
2022/04/05 09:26:47;;;;;;;1.92;1.13;;;12.10;46.10;;;;;;4989953;28;20223;-34
2022/04/05 09:29:14;;;;;;;2.08;1.25;;;12.30;45.70;;;;;;4989928;28;20214;-34
2022/04/05 09:31:47;;;;;;;1.60;1.10;;;12.30;45.30;;;;;;4989480;28;20189;-34
2022/04/05 09:34:16;;;;;;;3.38;1.75;;;12.30;45.20;;;;;;4989899;28;20252;-34
2022/04/05 09:36:50;;;;;;;1.73;1.00;;;12.30;45.20;;;;;;4989698;28;20199;-34
2022/04/05 09:39:24;;;;;;;2.33;1.27;;;12.30;45.80;;;;;;4989729;28;20186;-34
2022/04/05 09:42:03;;;;;;;3.28;1.20;;;12.30;45.80;;;;;;4989541;28;20188;-34
2022/04/05 09:44:42;;;;;;;2.30;1.20;;;12.20;45.90;;;;;;4990038;28;20163;-34
2022/04/05 09:47:19;;;;;;;1.73;0.82;;;12.10;46.10;;;;;;4989494;28;20700;-34
2022/04/05 09:49:48;;;;;;;1.30;0.70;;;12.10;46.20;;;;;;4989730;28;20529;-34
2022/04/05 09:52:25;;;;;;;1.48;0.77;;;12.10;46.60;;;;;;4989373;28;20187;-34
2022/04/05 09:54:51;;;;;;;2.00;1.00;;;12.20;46.60;;;;;;4989789;28;20246;-34
2022/04/05 09:57:28;;;;;;;1.98;1.40;;;12.10;47.00;;;;;;4990741;28;20319;-34
2022/04/05 10:00:07;;;;;;;1.60;0.80;;;12.10;46.80;;;;;;4993282;28;20163;-34
2022/04/05 10:02:33;;;;;;;5.72;1.08;;;12.10;46.90;;;;;;4992884;28;20182;-34
2022/04/05 10:05:09;;;;;;;2.40;0.53;;;12.00;46.90;;;;;;4992953;28;20254;-34
2022/04/05 10:07:36;;;;;;;1.63;0.90;;;12.00;47.10;;;;;;4993071;28;20227;-34
2022/04/05 10:10:07;;;;;;;1.60;0.98;;;11.80;47.00;;;;;;4992970;28;20540;-34
2022/04/05 10:12:33;;;;;;;1.48;0.80;;;11.80;47.30;;;;;;4992619;28;20201;-34
2022/04/05 10:15:02;;;;;;;3.40;1.20;;;11.80;47.50;;;;;;4992845;28;20180;-34
2022/04/05 10:17:28;;;;;;;3.00;0.98;;;11.80;47.60;;;;;;4992675;28;20195;-34
2022/04/05 10:19:56;;;;;;;1.58;0.77;;;11.80;48.30;;;;;;4993153;28;20179;-34
2022/04/05 10:22:23;;;;;;;2.03;1.15;;;11.80;48.20;;;;;;4991154;28;20228;-33
2022/04/05 10:24:53;;;;;;;1.60;0.88;;;11.70;48.80;;;;;;5026715;28;20278;-34
2022/04/05 10:27:20;;;;;;;3.03;1.55;;;11.60;49.30;;;;;;4992895;28;20281;-34
2022/04/05 10:29:56;;;;;;;7.68;1.40;;;11.50;49.20;;;;;;4992600;28;20187;-34
2022/04/05 10:33:10;;;;;;;2.22;0.98;;;11.40;49.80;;;;;;4992394;28;20163;-34
2022/04/05 10:35:53;;;;;;;1.70;0.80;;;11.50;49.50;;;;;;4951343;28;20204;-34
2022/04/05 10:38:19;;;;;;;1.83;0.73;;;11.60;50.10;;;;;;4951366;29;20172;-34
2022/04/05 10:41:16;;;;;;;2.00;1.13;;;11.70;50.60;;;;;;4946866;29;20180;-34
2022/04/05 10:43:43;;;;;;;3.15;1.02;;;11.60;50.00;;;;;;4945512;29;20546;-34
2022/04/05 10:46:10;;;;;;;1.40;0.93;;;11.70;50.20;;;;;;4950883;28;20229;-34
2022/04/05 10:48:37;;;;;;;2.50;1.17;;;11.60;51.10;;;;;;4951190;29;20180;-34
2022/04/05 10:51:03;;;;;;;1.45;0.90;;;11.60;50.40;;;;;;4950999;29;20188;-34
2022/04/05 10:53:41;;;;;;;2.20;1.00;;;11.70;50.10;;;;;;4951082;29;20608;-34
2022/04/05 10:56:08;;;;;;;2.15;1.20;;;11.70;50.10;;;;;;4951094;28;20196;-34
2022/04/05 10:58:38;;;;;;;1.90;1.08;;;11.70;50.30;;;;;;4951181;29;20263;-34
2022/04/05 11:01:18;;;;;;;2.90;2.05;;;11.70;50.60;;;;;;4950682;29;20271;-34
2022/04/05 11:04:09;;;;;;;2.78;1.48;;;11.80;49.90;;;;;;4951063;29;20198;-34
2022/04/05 11:07:01;;;;;;;2.20;1.13;;;11.80;50.10;;;;;;4975236;28;20206;-34
2022/04/05 11:09:43;;;;;;;12.27;2.80;;;11.80;49.80;;;;;;4990767;28;20265;-34
2022/04/05 11:12:18;;;;;;;3.40;1.58;;;11.90;50.60;;;;;;4991692;28;20258;-34
2022/04/05 11:14:49;;;;;;;3.60;1.63;;;12.00;50.60;;;;;;4992080;28;20199;-34
2022/04/05 11:17:17;;;;;;;2.63;1.75;;;12.10;50.60;;;;;;4991940;28;20195;-34
2022/04/05 11:19:45;;;;;;;2.95;1.50;;;12.30;50.60;;;;;;4991825;28;20166;-34
2022/04/05 11:22:20;;;;;;;1.95;1.55;;;12.40;51.00;;;;;;4991484;28;20579;-34
2022/04/05 11:24:56;;;;;;;2.90;2.38;;;12.50;50.70;;;;;;4991982;28;20183;-36
2022/04/05 11:27:38;;;;;;;3.83;1.88;;;12.60;50.40;;;;;;4991810;28;20195;-34
2022/04/05 11:30:27;;;;;;;3.38;1.70;;;12.70;50.90;;;;;;4991677;28;20180;-34
2022/04/05 11:33:12;;;;;;;4.10;2.20;;;12.90;50.20;;;;;;4991861;28;20188;-34
2022/04/05 11:35:51;;;;;;;2.28;1.58;;;13.00;49.80;;;;;;4991581;28;20211;-34
2022/04/05 11:38:17;;;;;;;3.78;1.50;;;13.00;49.60;;;;;;4991622;28;20638;-34
2022/04/05 11:40:46;;;;;;;4.20;2.50;;;13.10;49.20;;;;;;4991266;28;20259;-34
2022/04/05 11:43:24;;;;;;;2.30;1.60;;;12.60;48.70;;;;;;4991693;28;20183;-34
2022/04/05 11:45:52;;;;;;;2.58;1.95;;;13.10;49.10;;;;;;4991422;28;20593;-34
2022/04/05 11:48:22;;;;;;;2.83;1.83;;;13.00;49.00;;;;;;4991510;28;20254;-34
2022/04/05 11:50:49;;;;;;;3.30;1.98;;;12.80;48.70;;;;;;4991486;28;20198;-34
2022/04/05 11:53:27;;;;;;;2.67;2.08;;;12.70;49.00;;;;;;4991203;28;20289;-34
2022/04/05 11:56:11;;;;;;;2.13;1.40;;;12.60;49.00;;;;;;4991141;28;20688;-35
2022/04/05 11:58:43;;;;;;;3.00;1.52;;;12.60;49.30;;;;;;4991286;28;20160;-34
2022/04/05 12:01:10;;;;;;;3.53;1.73;;;12.60;49.50;;;;;;4991042;28;20267;-34
2022/04/05 12:03:42;;;;;;;3.88;1.55;;;12.60;49.70;;;;;;4991132;28;20237;-34
2022/04/05 12:06:08;;;;;;;2.20;1.60;;;12.80;49.70;;;;;;4991170;28;20686;-34
2022/04/05 12:08:34;;;;;;;3.17;2.37;;;12.90;50.00;;;;;;4991134;28;20190;-34
2022/04/05 12:11:00;;;;;;;1.90;1.23;;;12.90;49.30;;;;;;4990863;28;20411;-34
2022/04/05 12:13:28;;;;;;;1.90;1.40;;;12.90;49.60;;;;;;4990969;28;20461;-35
2022/04/05 12:16:01;;;;;;;3.08;2.05;;;12.90;49.90;;;;;;4991132;28;20203;-34
2022/04/05 12:18:28;;;;;;;3.55;1.50;;;12.90;49.80;;;;;;4990893;28;20180;-34
2022/04/05 12:21:07;;;;;;;2.60;1.75;;;13.00;49.60;;;;;;4990325;28;20796;-34
2022/04/05 12:23:38;;;;;;;3.03;2.42;;;13.10;49.90;;;;;;4990873;28;20656;-34
2022/04/05 12:26:23;;;;;;;2.72;1.60;;;13.20;49.50;;;;;;4991052;28;20286;-34
2022/04/05 12:28:57;;;;;;;3.22;2.13;;;13.20;49.20;;;;;;4990707;28;20233;-34
2022/04/05 12:31:31;;;;;;;2.88;1.92;;;13.30;48.80;;;;;;4990832;28;20218;-35
2022/04/05 12:34:13;;;;;;;2.05;1.73;;;13.30;49.00;;;;;;4990662;28;20301;-35
2022/04/05 12:36:41;;;;;;;3.10;2.30;;;13.30;48.70;;;;;;4990857;28;20203;-35
2022/04/05 12:39:20;;;;;;;2.95;2.00;;;13.40;48.70;;;;;;4990610;28;20183;-35
2022/04/05 12:41:48;;;;;;;5.18;2.53;;;13.50;48.70;;;;;;4990664;28;20163;-35
2022/04/05 12:44:16;;;;;;;2.63;1.88;;;13.50;48.50;;;;;;4990217;28;20225;-35
2022/04/05 12:46:58;;;;;;;2.78;2.13;;;13.50;48.30;;;;;;4981364;28;20222;-35
2022/04/05 12:49:30;;;;;;;3.30;2.65;;;13.60;48.40;;;;;;5024624;28;20580;-35
2022/04/05 12:52:07;;;;;;;3.65;2.25;;;13.60;48.80;;;;;;4990446;28;20219;-35
2022/04/05 12:54:35;;;;;;;2.75;2.25;;;13.60;48.70;;;;;;4990529;28;20211;-35
2022/04/05 12:57:34;;;;;;;8.13;2.03;;;13.60;48.60;;;;;;4990212;28;20227;-35
2022/04/05 13:00:16;;;;;;;4.32;2.22;;;13.40;48.50;;;;;;4990378;28;20160;-35